UPSVAC Airport Information Service

Mohammed V International Airport

ICAO: GMMN Country: Morocco,AF
Latitude: 33.3675 Longitude: -7.58997
Latest Arrival : UPSWT5157 (FACT-GMMN) Latest Departure : UPSWT5158 (GMMN-LLBG)


WX CaptureLIVE
Data provided by noaa.gov | Fetched at 17:43:10

METAR : GMMN 191700Z 01011KT CAVOK 25/13 Q1016 NOSIG

TAF : GMMN 191100Z 1912/2018 34004KT 9999 FEW020 TEMPO 1914/1919 36014KT BECMG 1923/2001 18004KT 9999 SCT013 BECMG 2009/2011 34006KT 9999 FEW016


Runway Data for GMMN
Data provided by openaviationdata.com

Runway ID Mag Var Hdg Length Elevation Surface ILS Freq ILS Id ILS Slope
17L -2 166° 12282 ft 656 ft Bituminous -- -- --
17R -2 166° 12197 ft 656 ft Bituminous 108.3 CAS 3
35L -2 346° 12197 ft 656 ft Bituminous 110.7 INL 3
35R -2 346° 12282 ft 656 ft Bituminous 109.9 INR 2

Mohammed V International Airport, Morocco,AF
Use only for reference purposes



Not for navigational purposes.